Middletown, OH (45044)

12:48 PM EDT on May 29, 2015 (GMT -0400)
Bridle Creek | | Change Station
CLOSE
Current Station
Personal Weather Station
Location: Monroe, OH
Elevation: 748 ft
Nearby Weather Stations

Elev 748 ft 39.43 °N, 84.36 °W | Updated 24 seconds ago

Partly Cloudy
Partly Cloudy
77.1 °F
Feels Like 79 °F
N
1.8
Wind Variable Wind from South
Gusts 10.4 mph

Today
High -- | Low -- °F
--% Chance of Precip.
Yesterday
High -- | Low -- °F
Precip. -- in
6:13 AM 8:56 PM
Waxing Gibbous, 84% visible
Pressure 30.18 in
Visibility 10.0 miles
Clouds Scattered Clouds 2100 ft
Mostly Cloudy 2900 ft
Mostly Cloudy 3400 ft
Heat Index 79 °F
Dew Point 70 °F
Humidity 79%
Rainfall 0.58 in
Snow Depth Not available.
UV 2.9 out of 12
Pollen 6.60 out of 12
Air Quality Not available.
Flu Activity Local Activity
METAR KMWO 291635Z AUTO 21010G15KT 10SM SCT021 BKN029 BKN034 27/20 A3018 RMK AO2 T02650203

More Conditions Fewer Conditions

Pressure 30.18 in
Visibility 10.0 miles
Clouds Scattered Clouds 2100 ft
Mostly Cloudy 2900 ft
Mostly Cloudy 3400 ft
Heat Index 79 °F
Dew Point 70 °F
Humidity 79%
Rainfall 0.58 in
Snow Depth Not available.
UV 2.9 out of 12
Pollen 6.60 out of 12
Air Quality Not available.
Flu Activity Local Activity
METAR KMWO 291635Z AUTO 21010G15KT 10SM SCT021 BKN029 BKN034 27/20 A3018 RMK AO2 T02650203

More Conditions Fewer Conditions

10-Day Weather Forecast

Almanac

Astronomy

May. 29, 2015 Rise Set
Actual Time
Civil Twilight
Nautical Twilight
Astronomical Twilight
Moon
Length of Visible Light
Length of Day
Tomorrow will be .
, % of the Moon is Illuminated

Today's Extremes

State Highs State Lows

Community

WunderPhotos

Upload Photos

1,825,301 photos uploaded!

WunderBlogs® & News

Nearby

Air Quality

  Air Quality AQ Index Pollutant
Not available.

Snow Depth

Station Depth Elevation

Earthquake Activity

City Distance Mag. Time & Date
Minimum magnitude displayed is 2.5.

Coastal Water Temperatures

Place Temperature

Stations

Nearby Weather Stations

Station Location Temp. Windchill Dew Point Humidity Wind Precip. Elev Updated Type